sensor_id;sensor_type;location;lat;lon;timestamp;temperature;humidity
37906;DHT22;23739;51.448;6.674;2022-10-28T00:04:47;17.10;99.90
37906;DHT22;23739;51.448;6.674;2022-10-28T00:07:13;18.70;99.90
37906;DHT22;23739;51.448;6.674;2022-10-28T00:09:38;18.70;99.90
37906;DHT22;23739;51.448;6.674;2022-10-28T00:12:04;18.80;99.90
37906;DHT22;23739;51.448;6.674;2022-10-28T00:14:31;18.80;99.90
37906;DHT22;23739;51.448;6.674;2022-10-28T00:16:56;18.80;99.90
37906;DHT22;23739;51.448;6.674;2022-10-28T00:19:22;18.80;99.90
37906;DHT22;23739;51.448;6.674;2022-10-28T00:21:48;18.80;99.90
37906;DHT22;23739;51.448;6.674;2022-10-28T00:24:14;18.80;99.90
37906;DHT22;23739;51.448;6.674;2022-10-28T00:26:41;18.70;99.90
37906;DHT22;23739;51.448;6.674;2022-10-28T00:29:10;18.70;99.90
37906;DHT22;23739;51.448;6.674;2022-10-28T00:31:36;18.70;99.90
37906;DHT22;23739;51.448;6.674;2022-10-28T00:34:04;18.70;99.90
37906;DHT22;23739;51.448;6.674;2022-10-28T00:36:33;18.70;99.90
37906;DHT22;23739;51.448;6.674;2022-10-28T00:39:00;18.80;99.90
37906;DHT22;23739;51.448;6.674;2022-10-28T00:41:35;18.80;99.90
37906;DHT22;23739;51.448;6.674;2022-10-28T00:46:49;18.60;99.90
37906;DHT22;23739;51.448;6.674;2022-10-28T00:49:24;18.60;99.90
37906;DHT22;23739;51.448;6.674;2022-10-28T00:51:55;18.60;99.90
37906;DHT22;23739;51.448;6.674;2022-10-28T00:54:23;18.70;99.90
37906;DHT22;23739;51.448;6.674;2022-10-28T00:56:52;18.70;99.90
37906;DHT22;23739;51.448;6.674;2022-10-28T00:59:28;18.60;99.90
37906;DHT22;23739;51.448;6.674;2022-10-28T01:01:54;18.60;99.90
37906;DHT22;23739;51.448;6.674;2022-10-28T01:04:20;18.70;99.90
37906;DHT22;23739;51.448;6.674;2022-10-28T01:06:47;18.80;99.90
37906;DHT22;23739;51.448;6.674;2022-10-28T01:09:13;18.70;99.90
37906;DHT22;23739;51.448;6.674;2022-10-28T01:15:06;18.70;99.90
37906;DHT22;23739;51.448;6.674;2022-10-28T01:29:16;18.30;99.90
37906;DHT22;23739;51.448;6.674;2022-10-28T01:40:41;18.20;99.90
37906;DHT22;23739;51.448;6.674;2022-10-28T01:42:45;18.20;99.90
37906;DHT22;23739;51.448;6.674;2022-10-28T01:48:04;18.00;99.90
37906;DHT22;23739;51.448;6.674;2022-10-28T01:53:10;17.90;99.90
37906;DHT22;23739;51.448;6.674;2022-10-28T01:55:39;17.90;99.90
37906;DHT22;23739;51.448;6.674;2022-10-28T01:58:08;18.00;99.90
37906;DHT22;23739;51.448;6.674;2022-10-28T02:00:35;18.00;99.90
37906;DHT22;23739;51.448;6.674;2022-10-28T02:03:02;17.90;99.90
37906;DHT22;23739;51.448;6.674;2022-10-28T02:16:38;17.70;99.90
37906;DHT22;23739;51.448;6.674;2022-10-28T02:19:24;17.80;99.90
37906;DHT22;23739;51.448;6.674;2022-10-28T02:22:28;17.70;99.90
37906;DHT22;23739;51.448;6.674;2022-10-28T02:25:22;17.80;99.90
37906;DHT22;23739;51.448;6.674;2022-10-28T02:30:45;17.70;99.90
37906;DHT22;23739;51.448;6.674;2022-10-28T02:33:18;17.70;99.90
37906;DHT22;23739;51.448;6.674;2022-10-28T02:35:48;17.70;99.90
37906;DHT22;23739;51.448;6.674;2022-10-28T02:38:31;17.70;99.90
37906;DHT22;23739;51.448;6.674;2022-10-28T02:40:58;17.70;99.90
37906;DHT22;23739;51.448;6.674;2022-10-28T02:43:27;17.70;99.90
37906;DHT22;23739;51.448;6.674;2022-10-28T02:45:56;17.70;99.90
37906;DHT22;23739;51.448;6.674;2022-10-28T02:51:17;17.70;99.90
37906;DHT22;23739;51.448;6.674;2022-10-28T02:56:19;17.70;99.90
37906;DHT22;23739;51.448;6.674;2022-10-28T02:58:46;17.50;99.90
37906;DHT22;23739;51.448;6.674;2022-10-28T03:01:12;17.50;99.90
37906;DHT22;23739;51.448;6.674;2022-10-28T03:03:38;17.50;99.90
37906;DHT22;23739;51.448;6.674;2022-10-28T03:06:04;17.40;99.90
37906;DHT22;23739;51.448;6.674;2022-10-28T03:08:30;17.40;99.90
37906;DHT22;23739;51.448;6.674;2022-10-28T03:10:56;17.40;99.90
37906;DHT22;23739;51.448;6.674;2022-10-28T03:13:22;17.30;99.90
37906;DHT22;23739;51.448;6.674;2022-10-28T03:15:47;17.20;99.90
37906;DHT22;23739;51.448;6.674;2022-10-28T03:18:13;17.20;99.90
37906;DHT22;23739;51.448;6.674;2022-10-28T03:20:39;17.20;99.90
37906;DHT22;23739;51.448;6.674;2022-10-28T03:23:05;17.20;99.90
37906;DHT22;23739;51.448;6.674;2022-10-28T03:25:30;17.30;99.90
37906;DHT22;23739;51.448;6.674;2022-10-28T03:27:56;17.20;99.90
37906;DHT22;23739;51.448;6.674;2022-10-28T03:30:22;17.20;99.90
37906;DHT22;23739;51.448;6.674;2022-10-28T03:32:48;17.20;99.90
37906;DHT22;23739;51.448;6.674;2022-10-28T03:35:14;17.20;99.90
37906;DHT22;23739;51.448;6.674;2022-10-28T03:37:42;17.20;99.90
37906;DHT22;23739;51.448;6.674;2022-10-28T03:40:09;17.20;99.90
37906;DHT22;23739;51.448;6.674;2022-10-28T03:42:35;17.20;99.90
37906;DHT22;23739;51.448;6.674;2022-10-28T03:45:01;17.10;99.90
37906;DHT22;23739;51.448;6.674;2022-10-28T03:47:27;17.00;99.90
37906;DHT22;23739;51.448;6.674;2022-10-28T03:49:53;17.00;99.90
37906;DHT22;23739;51.448;6.674;2022-10-28T03:52:19;17.00;99.90
37906;DHT22;23739;51.448;6.674;2022-10-28T03:54:44;17.00;99.90
37906;DHT22;23739;51.448;6.674;2022-10-28T03:57:10;17.10;99.90
37906;DHT22;23739;51.448;6.674;2022-10-28T03:59:36;17.10;99.90
37906;DHT22;23739;51.448;6.674;2022-10-28T04:02:01;17.00;99.90
37906;DHT22;23739;51.448;6.674;2022-10-28T04:04:28;17.10;99.90
37906;DHT22;23739;51.448;6.674;2022-10-28T04:06:53;17.10;99.90
37906;DHT22;23739;51.448;6.674;2022-10-28T04:09:19;17.10;99.90
37906;DHT22;23739;51.448;6.674;2022-10-28T04:11:47;17.00;99.90
37906;DHT22;23739;51.448;6.674;2022-10-28T04:14:14;16.90;99.90
37906;DHT22;23739;51.448;6.674;2022-10-28T04:16:39;16.90;99.90
37906;DHT22;23739;51.448;6.674;2022-10-28T04:19:05;16.80;99.90
37906;DHT22;23739;51.448;6.674;2022-10-28T04:21:31;16.90;99.90
37906;DHT22;23739;51.448;6.674;2022-10-28T04:23:57;16.90;99.90
37906;DHT22;23739;51.448;6.674;2022-10-28T04:26:23;16.90;99.90
37906;DHT22;23739;51.448;6.674;2022-10-28T04:28:48;16.70;99.90
37906;DHT22;23739;51.448;6.674;2022-10-28T04:31:14;16.70;99.90
37906;DHT22;23739;51.448;6.674;2022-10-28T04:33:40;16.90;99.90
37906;DHT22;23739;51.448;6.674;2022-10-28T04:36:06;16.80;99.90
37906;DHT22;23739;51.448;6.674;2022-10-28T04:38:31;16.70;99.90
37906;DHT22;23739;51.448;6.674;2022-10-28T04:40:57;16.70;99.90
37906;DHT22;23739;51.448;6.674;2022-10-28T04:43:23;16.80;99.90
37906;DHT22;23739;51.448;6.674;2022-10-28T04:45:48;16.80;99.90
37906;DHT22;23739;51.448;6.674;2022-10-28T04:48:14;16.70;99.90
37906;DHT22;23739;51.448;6.674;2022-10-28T04:50:40;16.70;99.90
37906;DHT22;23739;51.448;6.674;2022-10-28T04:53:06;16.70;99.90
37906;DHT22;23739;51.448;6.674;2022-10-28T04:55:31;16.70;99.90
37906;DHT22;23739;51.448;6.674;2022-10-28T04:57:59;16.80;99.90
37906;DHT22;23739;51.448;6.674;2022-10-28T05:00:27;16.90;99.90
37906;DHT22;23739;51.448;6.674;2022-10-28T05:02:53;16.80;99.90
37906;DHT22;23739;51.448;6.674;2022-10-28T05:05:19;17.00;99.90
37906;DHT22;23739;51.448;6.674;2022-10-28T05:07:45;17.10;99.90
37906;DHT22;23739;51.448;6.674;2022-10-28T05:10:11;16.90;99.90
37906;DHT22;23739;51.448;6.674;2022-10-28T05:12:44;17.10;99.90
37906;DHT22;23739;51.448;6.674;2022-10-28T05:15:10;17.10;99.90
37906;DHT22;23739;51.448;6.674;2022-10-28T05:17:43;17.20;99.90
37906;DHT22;23739;51.448;6.674;2022-10-28T05:20:09;17.10;99.90
37906;DHT22;23739;51.448;6.674;2022-10-28T05:22:36;17.20;99.90
37906;DHT22;23739;51.448;6.674;2022-10-28T05:25:03;17.20;99.90
37906;DHT22;23739;51.448;6.674;2022-10-28T05:27:29;17.20;99.90
37906;DHT22;23739;51.448;6.674;2022-10-28T05:29:55;17.30;99.90
37906;DHT22;23739;51.448;6.674;2022-10-28T05:32:20;17.30;99.90
37906;DHT22;23739;51.448;6.674;2022-10-28T05:34:46;17.30;99.90
37906;DHT22;23739;51.448;6.674;2022-10-28T05:37:12;17.30;99.90
37906;DHT22;23739;51.448;6.674;2022-10-28T05:39:38;17.30;99.90
37906;DHT22;23739;51.448;6.674;2022-10-28T05:42:03;17.30;99.90
37906;DHT22;23739;51.448;6.674;2022-10-28T05:44:29;17.30;99.90
37906;DHT22;23739;51.448;6.674;2022-10-28T05:46:55;17.30;99.90
37906;DHT22;23739;51.448;6.674;2022-10-28T05:49:21;17.20;99.90
37906;DHT22;23739;51.448;6.674;2022-10-28T05:51:47;17.10;99.90
37906;DHT22;23739;51.448;6.674;2022-10-28T05:54:13;17.10;99.90
37906;DHT22;23739;51.448;6.674;2022-10-28T05:56:39;17.00;99.90
37906;DHT22;23739;51.448;6.674;2022-10-28T05:59:04;16.90;99.90
37906;DHT22;23739;51.448;6.674;2022-10-28T06:01:30;16.80;99.90
37906;DHT22;23739;51.448;6.674;2022-10-28T06:03:56;16.80;99.90
37906;DHT22;23739;51.448;6.674;2022-10-28T06:06:21;16.80;99.90
37906;DHT22;23739;51.448;6.674;2022-10-28T06:08:47;16.80;99.90
37906;DHT22;23739;51.448;6.674;2022-10-28T06:11:13;17.00;99.90
37906;DHT22;23739;51.448;6.674;2022-10-28T06:13:39;16.80;99.90
37906;DHT22;23739;51.448;6.674;2022-10-28T06:16:05;16.80;99.90
37906;DHT22;23739;51.448;6.674;2022-10-28T06:18:31;16.80;99.90
37906;DHT22;23739;51.448;6.674;2022-10-28T06:20:57;16.90;99.90
37906;DHT22;23739;51.448;6.674;2022-10-28T06:23:24;16.90;99.90
37906;DHT22;23739;51.448;6.674;2022-10-28T06:25:52;16.90;99.90
37906;DHT22;23739;51.448;6.674;2022-10-28T06:28:20;16.80;99.90
37906;DHT22;23739;51.448;6.674;2022-10-28T06:30:46;16.80;99.90
37906;DHT22;23739;51.448;6.674;2022-10-28T06:33:12;16.90;99.90
37906;DHT22;23739;51.448;6.674;2022-10-28T06:35:38;16.80;99.90
37906;DHT22;23739;51.448;6.674;2022-10-28T06:38:03;16.80;99.90
37906;DHT22;23739;51.448;6.674;2022-10-28T06:40:30;16.70;99.90
37906;DHT22;23739;51.448;6.674;2022-10-28T06:43:10;16.90;99.90
37906;DHT22;23739;51.448;6.674;2022-10-28T06:45:38;16.90;99.90
37906;DHT22;23739;51.448;6.674;2022-10-28T06:48:05;17.00;99.90
37906;DHT22;23739;51.448;6.674;2022-10-28T06:50:34;17.00;99.90
37906;DHT22;23739;51.448;6.674;2022-10-28T06:53:01;17.10;99.90
37906;DHT22;23739;51.448;6.674;2022-10-28T06:55:27;17.00;99.90
37906;DHT22;23739;51.448;6.674;2022-10-28T06:57:53;17.00;99.90
37906;DHT22;23739;51.448;6.674;2022-10-28T07:00:23;17.10;99.90
37906;DHT22;23739;51.448;6.674;2022-10-28T07:02:52;17.10;99.90
37906;DHT22;23739;51.448;6.674;2022-10-28T07:05:19;17.10;99.90
37906;DHT22;23739;51.448;6.674;2022-10-28T07:07:45;17.20;99.90
37906;DHT22;23739;51.448;6.674;2022-10-28T07:13:32;17.40;99.90
37906;DHT22;23739;51.448;6.674;2022-10-28T07:15:59;17.40;99.90
37906;DHT22;23739;51.448;6.674;2022-10-28T07:18:27;17.40;99.90
37906;DHT22;23739;51.448;6.674;2022-10-28T07:20:56;17.40;99.90
37906;DHT22;23739;51.448;6.674;2022-10-28T07:23:22;17.50;99.90
37906;DHT22;23739;51.448;6.674;2022-10-28T07:25:52;17.50;99.90
37906;DHT22;23739;51.448;6.674;2022-10-28T07:28:19;17.60;99.90
37906;DHT22;23739;51.448;6.674;2022-10-28T07:30:45;17.60;99.90
37906;DHT22;23739;51.448;6.674;2022-10-28T07:33:11;17.60;99.90
37906;DHT22;23739;51.448;6.674;2022-10-28T07:35:37;17.70;99.90
37906;DHT22;23739;51.448;6.674;2022-10-28T07:38:03;17.70;99.90
37906;DHT22;23739;51.448;6.674;2022-10-28T07:40:29;17.90;99.90
37906;DHT22;23739;51.448;6.674;2022-10-28T07:42:55;17.80;99.90
37906;DHT22;23739;51.448;6.674;2022-10-28T07:45:22;18.10;99.90
37906;DHT22;23739;51.448;6.674;2022-10-28T07:47:48;18.10;99.90
37906;DHT22;23739;51.448;6.674;2022-10-28T07:50:14;18.10;99.90
37906;DHT22;23739;51.448;6.674;2022-10-28T07:52:40;18.10;99.90
37906;DHT22;23739;51.448;6.674;2022-10-28T07:55:06;18.10;99.90
37906;DHT22;23739;51.448;6.674;2022-10-28T07:57:36;18.20;99.90
37906;DHT22;23739;51.448;6.674;2022-10-28T08:00:03;18.20;99.90
37906;DHT22;23739;51.448;6.674;2022-10-28T08:02:29;18.30;99.90
37906;DHT22;23739;51.448;6.674;2022-10-28T08:04:55;18.30;99.90
37906;DHT22;23739;51.448;6.674;2022-10-28T08:07:21;18.40;99.90
37906;DHT22;23739;51.448;6.674;2022-10-28T08:09:47;18.40;99.90
37906;DHT22;23739;51.448;6.674;2022-10-28T08:12:14;18.40;99.90
37906;DHT22;23739;51.448;6.674;2022-10-28T08:14:40;18.40;99.90
37906;DHT22;23739;51.448;6.674;2022-10-28T08:17:06;18.50;99.90
37906;DHT22;23739;51.448;6.674;2022-10-28T08:19:38;18.50;99.90
37906;DHT22;23739;51.448;6.674;2022-10-28T08:22:04;18.60;99.90
37906;DHT22;23739;51.448;6.674;2022-10-28T08:24:30;18.80;99.90
37906;DHT22;23739;51.448;6.674;2022-10-28T08:26:57;18.90;99.90
37906;DHT22;23739;51.448;6.674;2022-10-28T08:29:25;18.90;99.90
37906;DHT22;23739;51.448;6.674;2022-10-28T08:31:51;19.00;99.90
37906;DHT22;23739;51.448;6.674;2022-10-28T08:34:18;19.00;99.90
37906;DHT22;23739;51.448;6.674;2022-10-28T08:36:44;19.10;99.90
37906;DHT22;23739;51.448;6.674;2022-10-28T08:39:09;19.20;99.90
37906;DHT22;23739;51.448;6.674;2022-10-28T08:41:51;19.40;99.90
37906;DHT22;23739;51.448;6.674;2022-10-28T08:50:44;20.00;99.90
37906;DHT22;23739;51.448;6.674;2022-10-28T08:53:20;20.10;99.90
37906;DHT22;23739;51.448;6.674;2022-10-28T08:55:49;20.20;99.90
37906;DHT22;23739;51.448;6.674;2022-10-28T08:58:28;20.40;99.90
37906;DHT22;23739;51.448;6.674;2022-10-28T09:00:57;20.60;99.90
37906;DHT22;23739;51.448;6.674;2022-10-28T09:03:37;20.90;99.90
37906;DHT22;23739;51.448;6.674;2022-10-28T09:06:06;21.10;99.90
37906;DHT22;23739;51.448;6.674;2022-10-28T09:08:40;21.20;99.90
37906;DHT22;23739;51.448;6.674;2022-10-28T09:16:42;21.60;99.90
37906;DHT22;23739;51.448;6.674;2022-10-28T09:35:12;21.90;99.90
37906;DHT22;23739;51.448;6.674;2022-10-28T09:37:48;21.90;99.90
37906;DHT22;23739;51.448;6.674;2022-10-28T09:40:28;21.70;99.90
37906;DHT22;23739;51.448;6.674;2022-10-28T09:43:25;21.70;99.90
37906;DHT22;23739;51.448;6.674;2022-10-28T09:45:52;21.90;99.90
37906;DHT22;23739;51.448;6.674;2022-10-28T09:48:35;22.00;99.90
37906;DHT22;23739;51.448;6.674;2022-10-28T09:51:01;22.10;99.90
37906;DHT22;23739;51.448;6.674;2022-10-28T09:53:43;22.30;99.90
37906;DHT22;23739;51.448;6.674;2022-10-28T09:56:13;22.30;99.90
37906;DHT22;23739;51.448;6.674;2022-10-28T09:58:46;22.20;99.90
37906;DHT22;23739;51.448;6.674;2022-10-28T10:01:13;22.10;99.90
37906;DHT22;23739;51.448;6.674;2022-10-28T10:03:39;22.00;99.90
37906;DHT22;23739;51.448;6.674;2022-10-28T10:08:57;21.90;99.90
37906;DHT22;23739;51.448;6.674;2022-10-28T10:11:29;21.90;99.90
37906;DHT22;23739;51.448;6.674;2022-10-28T10:13:58;22.00;99.90
37906;DHT22;23739;51.448;6.674;2022-10-28T10:16:40;22.20;99.90
37906;DHT22;23739;51.448;6.674;2022-10-28T10:19:08;22.30;99.90
37906;DHT22;23739;51.448;6.674;2022-10-28T10:21:46;22.20;99.90
37906;DHT22;23739;51.448;6.674;2022-10-28T10:24:33;22.20;99.90
37906;DHT22;23739;51.448;6.674;2022-10-28T10:27:01;22.20;99.90
37906;DHT22;23739;51.448;6.674;2022-10-28T10:29:29;22.20;99.90
37906;DHT22;23739;51.448;6.674;2022-10-28T10:32:04;22.30;99.90
37906;DHT22;23739;51.448;6.674;2022-10-28T10:34:32;22.20;99.90
37906;DHT22;23739;51.448;6.674;2022-10-28T10:36:59;22.50;99.90
37906;DHT22;23739;51.448;6.674;2022-10-28T10:39:34;22.30;99.90
37906;DHT22;23739;51.448;6.674;2022-10-28T10:42:02;22.50;99.90
37906;DHT22;23739;51.448;6.674;2022-10-28T10:44:33;22.80;99.90
37906;DHT22;23739;51.448;6.674;2022-10-28T10:49:28;22.60;99.90
37906;DHT22;23739;51.448;6.674;2022-10-28T10:52:06;22.50;99.90
37906;DHT22;23739;51.448;6.674;2022-10-28T10:54:36;22.50;99.90
37906;DHT22;23739;51.448;6.674;2022-10-28T10:57:20;22.70;99.90
37906;DHT22;23739;51.448;6.674;2022-10-28T10:59:49;23.00;99.90
37906;DHT22;23739;51.448;6.674;2022-10-28T11:02:34;23.10;99.90
37906;DHT22;23739;51.448;6.674;2022-10-28T11:05:07;23.30;99.90
37906;DHT22;23739;51.448;6.674;2022-10-28T11:07:35;23.00;99.90
37906;DHT22;23739;51.448;6.674;2022-10-28T11:10:02;22.90;99.90
37906;DHT22;23739;51.448;6.674;2022-10-28T11:12:35;22.90;99.90
37906;DHT22;23739;51.448;6.674;2022-10-28T11:15:18;22.80;99.90
37906;DHT22;23739;51.448;6.674;2022-10-28T11:17:55;22.90;99.90
37906;DHT22;23739;51.448;6.674;2022-10-28T11:23:43;23.10;99.90
37906;DHT22;23739;51.448;6.674;2022-10-28T11:26:13;23.00;99.90
37906;DHT22;23739;51.448;6.674;2022-10-28T11:34:10;22.90;99.90
37906;DHT22;23739;51.448;6.674;2022-10-28T11:39:20;22.90;99.90
37906;DHT22;23739;51.448;6.674;2022-10-28T11:42:16;23.10;99.90
37906;DHT22;23739;51.448;6.674;2022-10-28T11:44:53;23.30;99.90
37906;DHT22;23739;51.448;6.674;2022-10-28T11:52:54;23.60;99.90
37906;DHT22;23739;51.448;6.674;2022-10-28T11:55:55;23.70;99.90
37906;DHT22;23739;51.448;6.674;2022-10-28T12:04:02;23.70;99.90
37906;DHT22;23739;51.448;6.674;2022-10-28T12:12:37;24.40;99.90
37906;DHT22;23739;51.448;6.674;2022-10-28T12:15:25;24.20;99.90
37906;DHT22;23739;51.448;6.674;2022-10-28T12:18:42;24.00;99.90
37906;DHT22;23739;51.448;6.674;2022-10-28T12:21:12;23.80;99.90
37906;DHT22;23739;51.448;6.674;2022-10-28T12:23:40;24.00;99.90
37906;DHT22;23739;51.448;6.674;2022-10-28T12:26:09;24.10;99.90
37906;DHT22;23739;51.448;6.674;2022-10-28T12:28:44;24.30;99.90
37906;DHT22;23739;51.448;6.674;2022-10-28T12:31:36;24.30;99.90
37906;DHT22;23739;51.448;6.674;2022-10-28T12:34:09;25.80;99.90
37906;DHT22;23739;51.448;6.674;2022-10-28T12:36:42;24.30;99.90
37906;DHT22;23739;51.448;6.674;2022-10-28T12:39:12;24.30;99.90
37906;DHT22;23739;51.448;6.674;2022-10-28T12:42:20;24.20;99.90
37906;DHT22;23739;51.448;6.674;2022-10-28T12:44:49;24.40;99.90
37906;DHT22;23739;51.448;6.674;2022-10-28T12:47:58;24.30;99.90
37906;DHT22;23739;51.448;6.674;2022-10-28T12:55:43;24.30;99.90
37906;DHT22;23739;51.448;6.674;2022-10-28T12:58:30;24.20;99.90
37906;DHT22;23739;51.448;6.674;2022-10-28T13:01:01;24.20;99.90
37906;DHT22;23739;51.448;6.674;2022-10-28T13:03:28;24.10;99.90
37906;DHT22;23739;51.448;6.674;2022-10-28T13:06:07;24.10;99.90
37906;DHT22;23739;51.448;6.674;2022-10-28T13:11:35;24.10;99.90
37906;DHT22;23739;51.448;6.674;2022-10-28T13:22:26;24.20;99.90
37906;DHT22;23739;51.448;6.674;2022-10-28T13:24:57;24.20;99.90
37906;DHT22;23739;51.448;6.674;2022-10-28T13:27:26;24.30;99.90
37906;DHT22;23739;51.448;6.674;2022-10-28T13:29:56;24.40;99.90
37906;DHT22;23739;51.448;6.674;2022-10-28T13:32:35;24.40;99.90
37906;DHT22;23739;51.448;6.674;2022-10-28T13:35:14;24.50;99.90
37906;DHT22;23739;51.448;6.674;2022-10-28T13:37:45;24.60;99.90
37906;DHT22;23739;51.448;6.674;2022-10-28T13:42:56;24.70;99.90
37906;DHT22;23739;51.448;6.674;2022-10-28T13:45:51;24.80;99.90
37906;DHT22;23739;51.448;6.674;2022-10-28T13:48:45;24.80;99.90
37906;DHT22;23739;51.448;6.674;2022-10-28T13:58:59;24.10;99.90
37906;DHT22;23739;51.448;6.674;2022-10-28T14:01:54;24.00;99.90
37906;DHT22;23739;51.448;6.674;2022-10-28T14:04:36;23.90;99.90
37906;DHT22;23739;51.448;6.674;2022-10-28T14:07:18;23.90;99.90
37906;DHT22;23739;51.448;6.674;2022-10-28T14:09:49;23.90;99.90
37906;DHT22;23739;51.448;6.674;2022-10-28T14:17:22;23.60;99.90
37906;DHT22;23739;51.448;6.674;2022-10-28T14:19:50;23.60;99.90
37906;DHT22;23739;51.448;6.674;2022-10-28T14:22:28;23.50;99.90
37906;DHT22;23739;51.448;6.674;2022-10-28T14:24:54;23.40;99.90
37906;DHT22;23739;51.448;6.674;2022-10-28T14:41:23;23.10;99.90
37906;DHT22;23739;51.448;6.674;2022-10-28T14:49:34;23.00;99.90
37906;DHT22;23739;51.448;6.674;2022-10-28T14:52:12;23.00;99.90
37906;DHT22;23739;51.448;6.674;2022-10-28T14:57:09;23.00;99.90
37906;DHT22;23739;51.448;6.674;2022-10-28T14:59:37;22.90;99.90
37906;DHT22;23739;51.448;6.674;2022-10-28T15:02:20;22.80;99.90
37906;DHT22;23739;51.448;6.674;2022-10-28T15:07:37;22.70;99.90
37906;DHT22;23739;51.448;6.674;2022-10-28T15:10:26;22.60;99.90
37906;DHT22;23739;51.448;6.674;2022-10-28T15:12:53;22.50;99.90
37906;DHT22;23739;51.448;6.674;2022-10-28T15:15:22;22.40;99.90
37906;DHT22;23739;51.448;6.674;2022-10-28T15:17:49;22.30;99.90
37906;DHT22;23739;51.448;6.674;2022-10-28T15:22:47;22.20;99.90
37906;DHT22;23739;51.448;6.674;2022-10-28T15:25:14;22.10;99.90
37906;DHT22;23739;51.448;6.674;2022-10-28T15:27:44;22.10;99.90
37906;DHT22;23739;51.448;6.674;2022-10-28T15:30:19;22.00;99.90
37906;DHT22;23739;51.448;6.674;2022-10-28T15:32:48;21.90;99.90
37906;DHT22;23739;51.448;6.674;2022-10-28T15:38:01;21.90;99.90
37906;DHT22;23739;51.448;6.674;2022-10-28T15:42:59;21.70;99.90
37906;DHT22;23739;51.448;6.674;2022-10-28T15:45:28;21.70;99.90
37906;DHT22;23739;51.448;6.674;2022-10-28T16:00:29;21.40;99.90
37906;DHT22;23739;51.448;6.674;2022-10-28T16:03:01;21.40;99.90
37906;DHT22;23739;51.448;6.674;2022-10-28T16:07:59;21.20;99.90
37906;DHT22;23739;51.448;6.674;2022-10-28T16:10:27;21.20;99.90
37906;DHT22;23739;51.448;6.674;2022-10-28T16:12:55;21.10;99.90
37906;DHT22;23739;51.448;6.674;2022-10-28T16:15:20;21.00;99.90
37906;DHT22;23739;51.448;6.674;2022-10-28T16:17:46;21.00;99.90
37906;DHT22;23739;51.448;6.674;2022-10-28T16:20:16;20.90;99.90
37906;DHT22;23739;51.448;6.674;2022-10-28T16:22:42;20.90;99.90
37906;DHT22;23739;51.448;6.674;2022-10-28T16:25:17;20.80;99.90
37906;DHT22;23739;51.448;6.674;2022-10-28T16:27:44;20.70;99.90
37906;DHT22;23739;51.448;6.674;2022-10-28T16:30:11;20.60;99.90
37906;DHT22;23739;51.448;6.674;2022-10-28T16:35:15;20.50;99.90
37906;DHT22;23739;51.448;6.674;2022-10-28T16:37:43;20.40;99.90
37906;DHT22;23739;51.448;6.674;2022-10-28T16:40:09;20.30;99.90
37906;DHT22;23739;51.448;6.674;2022-10-28T16:42:36;20.30;99.90
37906;DHT22;23739;51.448;6.674;2022-10-28T16:45:04;20.20;99.90
37906;DHT22;23739;51.448;6.674;2022-10-28T16:47:30;20.10;99.90
37906;DHT22;23739;51.448;6.674;2022-10-28T16:49:56;20.00;99.90
37906;DHT22;23739;51.448;6.674;2022-10-28T16:52:26;19.90;99.90
37906;DHT22;23739;51.448;6.674;2022-10-28T16:54:53;19.80;99.90
37906;DHT22;23739;51.448;6.674;2022-10-28T16:57:19;19.60;99.90
37906;DHT22;23739;51.448;6.674;2022-10-28T16:59:46;19.60;99.90
37906;DHT22;23739;51.448;6.674;2022-10-28T17:04:51;19.50;99.90
37906;DHT22;23739;51.448;6.674;2022-10-28T17:07:17;19.40;99.90
37906;DHT22;23739;51.448;6.674;2022-10-28T17:09:43;19.40;99.90
37906;DHT22;23739;51.448;6.674;2022-10-28T17:12:14;19.30;99.90
37906;DHT22;23739;51.448;6.674;2022-10-28T17:14:40;19.30;99.90
37906;DHT22;23739;51.448;6.674;2022-10-28T17:17:06;19.20;99.90
37906;DHT22;23739;51.448;6.674;2022-10-28T17:19:32;19.10;99.90
37906;DHT22;23739;51.448;6.674;2022-10-28T17:21:58;19.00;99.90
37906;DHT22;23739;51.448;6.674;2022-10-28T17:24:24;18.90;99.90
37906;DHT22;23739;51.448;6.674;2022-10-28T17:26:50;19.00;99.90
37906;DHT22;23739;51.448;6.674;2022-10-28T17:29:17;18.90;99.90
37906;DHT22;23739;51.448;6.674;2022-10-28T17:31:42;19.00;99.90
37906;DHT22;23739;51.448;6.674;2022-10-28T17:34:09;18.90;99.90
37906;DHT22;23739;51.448;6.674;2022-10-28T17:36:35;18.80;99.90
37906;DHT22;23739;51.448;6.674;2022-10-28T17:39:01;18.80;99.90
37906;DHT22;23739;51.448;6.674;2022-10-28T17:41:27;18.90;99.90
37906;DHT22;23739;51.448;6.674;2022-10-28T17:43:53;18.80;99.90
37906;DHT22;23739;51.448;6.674;2022-10-28T17:46:20;18.70;99.90
37906;DHT22;23739;51.448;6.674;2022-10-28T17:48:46;18.70;99.90
37906;DHT22;23739;51.448;6.674;2022-10-28T17:51:11;18.70;99.90
37906;DHT22;23739;51.448;6.674;2022-10-28T17:53:37;18.60;99.90
37906;DHT22;23739;51.448;6.674;2022-10-28T17:56:04;18.50;99.90
37906;DHT22;23739;51.448;6.674;2022-10-28T17:58:31;18.50;99.90
37906;DHT22;23739;51.448;6.674;2022-10-28T18:01:05;18.50;99.90
37906;DHT22;23739;51.448;6.674;2022-10-28T18:03:32;18.50;99.90
37906;DHT22;23739;51.448;6.674;2022-10-28T18:06:04;18.50;99.90
37906;DHT22;23739;51.448;6.674;2022-10-28T18:08:34;18.40;99.90
37906;DHT22;23739;51.448;6.674;2022-10-28T18:11:02;18.40;99.90
37906;DHT22;23739;51.448;6.674;2022-10-28T18:13:30;18.40;99.90
37906;DHT22;23739;51.448;6.674;2022-10-28T18:16:02;18.40;99.90
37906;DHT22;23739;51.448;6.674;2022-10-28T18:18:28;18.40;99.90
37906;DHT22;23739;51.448;6.674;2022-10-28T18:20:54;18.30;99.90
37906;DHT22;23739;51.448;6.674;2022-10-28T18:23:21;18.30;99.90
37906;DHT22;23739;51.448;6.674;2022-10-28T18:25:59;18.30;99.90
37906;DHT22;23739;51.448;6.674;2022-10-28T18:28:26;18.50;99.90
37906;DHT22;23739;51.448;6.674;2022-10-28T18:30:52;18.50;99.90
37906;DHT22;23739;51.448;6.674;2022-10-28T18:33:18;18.50;99.90
37906;DHT22;23739;51.448;6.674;2022-10-28T18:35:44;18.40;99.90
37906;DHT22;23739;51.448;6.674;2022-10-28T18:38:10;18.30;99.90
37906;DHT22;23739;51.448;6.674;2022-10-28T18:40:35;18.40;99.90
37906;DHT22;23739;51.448;6.674;2022-10-28T18:43:01;18.30;99.90
37906;DHT22;23739;51.448;6.674;2022-10-28T18:45:27;18.20;99.90
37906;DHT22;23739;51.448;6.674;2022-10-28T18:47:53;18.30;99.90
37906;DHT22;23739;51.448;6.674;2022-10-28T18:50:18;18.30;99.90
37906;DHT22;23739;51.448;6.674;2022-10-28T18:52:44;18.20;99.90
37906;DHT22;23739;51.448;6.674;2022-10-28T18:55:10;18.30;99.90
37906;DHT22;23739;51.448;6.674;2022-10-28T18:57:36;18.30;99.90
37906;DHT22;23739;51.448;6.674;2022-10-28T19:00:02;18.10;99.90
37906;DHT22;23739;51.448;6.674;2022-10-28T19:02:28;18.10;99.90
37906;DHT22;23739;51.448;6.674;2022-10-28T19:04:54;18.10;99.90
37906;DHT22;23739;51.448;6.674;2022-10-28T19:07:22;18.10;99.90
37906;DHT22;23739;51.448;6.674;2022-10-28T19:09:48;18.20;99.90